Time;durP1;ratioP1;P1;durP2;ratioP2;P2;SDS_P1;SDS_P2;PMS_P1;PMS_P2;Temp;Humidity;BMP_temperature;BMP_pressure;BME280_temperature;BME280_humidity;BME280_pressure;Samples;Min_cycle;Max_cycle;Signal;HPM_P1;HPM_P2
2022/05/28 00:01:14;;;;;;;12.45;3.70;;;;;;;;;;7395864;19;20027;-60
2022/05/28 00:03:43;;;;;;;10.68;3.22;;;;;;;;;;7397149;19;20130;-56
2022/05/28 00:06:12;;;;;;;9.52;3.47;;;;;;;;;;7394057;19;20029;-55
2022/05/28 00:08:41;;;;;;;12.13;3.83;;;;;;;;;;7395504;19;20019;-60
2022/05/28 00:11:13;;;;;;;11.65;3.00;;;;;;;;;;7394209;19;20028;-57
2022/05/28 00:13:42;;;;;;;8.23;3.20;;;;;;;;;;7395290;19;20463;-58
2022/05/28 00:16:13;;;;;;;11.88;3.40;;;;;;;;;;7395053;19;20026;-56
2022/05/28 00:18:42;;;;;;;12.45;3.75;;;;;;;;;;7397887;19;20025;-56
2022/05/28 00:21:11;;;;;;;10.90;3.40;;;;;;;;;;7394363;19;20025;-55
2022/05/28 00:23:40;;;;;;;11.45;3.58;;;;;;;;;;7395007;19;20015;-55
2022/05/28 00:26:09;;;;;;;14.85;3.85;;;;;;;;;;7395893;19;20467;-60
2022/05/28 00:28:37;;;;;;;14.20;4.72;;;;;;;;;;7392646;19;20014;-57
2022/05/28 00:31:06;;;;;;;14.00;4.00;;;;;;;;;;7394645;19;20082;-60
2022/05/28 00:33:37;;;;;;;13.93;4.05;;;;;;;;;;7394735;19;20030;-58
2022/05/28 00:36:08;;;;;;;14.55;3.70;;;;;;;;;;7394012;19;20542;-59
2022/05/28 00:38:37;;;;;;;13.05;3.63;;;;;;;;;;7394976;19;20044;-59
2022/05/28 00:41:05;;;;;;;14.55;3.47;;;;;;;;;;7392861;19;20014;-59
2022/05/28 00:43:34;;;;;;;14.90;4.15;;;;;;;;;;7393862;19;20018;-59
2022/05/28 00:46:03;;;;;;;12.38;3.97;;;;;;;;;;7393231;19;20028;-60
2022/05/28 00:48:33;;;;;;;13.10;3.63;;;;;;;;;;7392719;19;20636;-60
2022/05/28 00:51:06;;;;;;;17.90;4.25;;;;;;;;;;7395501;19;20020;-60
2022/05/28 00:53:34;;;;;;;;;;;;;;;;;;7395311;19;20025;-60
2022/05/28 00:56:03;;;;;;;14.98;3.95;;;;;;;;;;7393591;19;19910;-60
2022/05/28 00:58:32;;;;;;;15.55;4.20;;;;;;;;;;7394907;19;20023;-60
2022/05/28 01:01:01;;;;;;;11.10;4.03;;;;;;;;;;7393731;19;20021;-59
2022/05/28 01:03:32;;;;;;;15.40;4.13;;;;;;;;;;7394372;19;20018;-59
2022/05/28 01:06:08;;;;;;;11.80;4.20;;;;;;;;;;7393768;19;20026;-58
2022/05/28 01:08:41;;;;;;;11.32;4.07;;;;;;;;;;7396838;19;20035;-59
2022/05/28 01:11:12;;;;;;;12.00;4.25;;;;;;;;;;7392873;19;20029;-56
2022/05/28 01:13:44;;;;;;;14.65;4.18;;;;;;;;;;7394433;19;20014;-55
2022/05/28 01:16:14;;;;;;;14.38;4.35;;;;;;;;;;7391984;19;20019;-59
2022/05/28 01:18:45;;;;;;;15.23;3.75;;;;;;;;;;7392499;19;20029;-60
2022/05/28 01:21:17;;;;;;;14.50;4.20;;;;;;;;;;7392072;19;20535;-60
2022/05/28 01:23:51;;;;;;;12.88;3.60;;;;;;;;;;7394863;19;20187;-59
2022/05/28 01:26:23;;;;;;;15.10;4.90;;;;;;;;;;7392715;19;20363;-60
2022/05/28 01:28:57;;;;;;;19.15;4.30;;;;;;;;;;7390647;19;20347;-60
2022/05/28 01:31:28;;;;;;;17.50;4.18;;;;;;;;;;7395047;19;20013;-58
2022/05/28 01:33:57;;;;;;;15.48;4.35;;;;;;;;;;7393084;19;20025;-55
2022/05/28 01:36:26;;;;;;;13.93;3.85;;;;;;;;;;7391609;19;20024;-58
2022/05/28 01:38:56;;;;;;;13.73;3.90;;;;;;;;;;7392521;19;20015;-60
2022/05/28 01:41:25;;;;;;;14.68;4.18;;;;;;;;;;7397152;19;20024;-60
2022/05/28 01:43:56;;;;;;;13.15;3.88;;;;;;;;;;7392703;19;20018;-58
2022/05/28 01:46:27;;;;;;;11.40;3.60;;;;;;;;;;7390862;19;20006;-59
2022/05/28 01:48:57;;;;;;;14.07;3.83;;;;;;;;;;7390916;19;20114;-58
2022/05/28 01:51:26;;;;;;;17.95;4.97;;;;;;;;;;7391413;19;20046;-57
2022/05/28 01:54:11;;;;;;;13.32;4.00;;;;;;;;;;7390169;19;20009;-58
2022/05/28 01:56:42;;;;;;;16.02;3.75;;;;;;;;;;7393964;19;20010;-56
2022/05/28 01:59:13;;;;;;;13.52;3.55;;;;;;;;;;7392021;19;20025;-58
2022/05/28 02:01:42;;;;;;;12.50;3.60;;;;;;;;;;7392049;19;20019;-60
2022/05/28 02:04:11;;;;;;;12.98;3.53;;;;;;;;;;7391539;19;20025;-60
2022/05/28 02:06:40;;;;;;;13.27;3.50;;;;;;;;;;7391219;19;20126;-60
2022/05/28 02:09:11;;;;;;;15.38;4.03;;;;;;;;;;7389528;19;20014;-60
2022/05/28 02:11:47;;;;;;;15.52;3.92;;;;;;;;;;7391387;19;20014;-59
2022/05/28 02:14:23;;;;;;;13.27;3.95;;;;;;;;;;7387309;19;20341;-58
2022/05/28 02:16:54;;;;;;;13.85;3.47;;;;;;;;;;7391895;19;20011;-60
2022/05/28 02:19:28;;;;;;;12.80;3.40;;;;;;;;;;7389989;19;20018;-59
2022/05/28 02:21:59;;;;;;;14.77;3.70;;;;;;;;;;7391138;19;20086;-60
2022/05/28 02:24:32;;;;;;;15.48;4.40;;;;;;;;;;7390254;19;20094;-60
2022/05/28 02:27:02;;;;;;;14.10;3.90;;;;;;;;;;7389520;19;20090;-59
2022/05/28 02:29:34;;;;;;;19.17;4.15;;;;;;;;;;7393213;19;20090;-59
2022/05/28 02:32:13;;;;;;;11.57;3.67;;;;;;;;;;7391439;19;20023;-60
2022/05/28 02:34:45;;;;;;;13.25;3.90;;;;;;;;;;7390473;19;20021;-59
2022/05/28 02:37:14;;;;;;;16.87;4.00;;;;;;;;;;7388340;19;20014;-60
2022/05/28 02:39:42;;;;;;;13.32;4.13;;;;;;;;;;7388986;19;20070;-57
2022/05/28 02:42:11;;;;;;;14.15;3.90;;;;;;;;;;7390075;19;20014;-59
2022/05/28 02:44:42;;;;;;;17.30;4.28;;;;;;;;;;7391162;19;20332;-59
2022/05/28 02:47:10;;;;;;;19.52;4.28;;;;;;;;;;7388419;19;20025;-57
2022/05/28 02:49:39;;;;;;;14.05;4.30;;;;;;;;;;7389472;19;20018;-64
2022/05/28 02:52:08;;;;;;;17.65;4.22;;;;;;;;;;7390310;19;20020;-54
2022/05/28 02:54:37;;;;;;;17.17;4.25;;;;;;;;;;7389839;19;20012;-60
2022/05/28 02:57:06;;;;;;;14.05;4.03;;;;;;;;;;7388721;19;20110;-56
2022/05/28 02:59:34;;;;;;;15.57;3.88;;;;;;;;;;7390098;19;20026;-60
2022/05/28 03:02:05;;;;;;;16.85;4.07;;;;;;;;;;7392771;19;20086;-59
2022/05/28 03:04:34;;;;;;;15.32;3.70;;;;;;;;;;7393619;19;20015;-59
2022/05/28 03:07:03;;;;;;;13.15;3.63;;;;;;;;;;7395302;19;20011;-57
2022/05/28 03:09:31;;;;;;;16.10;4.32;;;;;;;;;;7393671;19;20052;-59
2022/05/28 03:12:00;;;;;;;16.50;3.95;;;;;;;;;;7397210;19;20382;-59
2022/05/28 03:14:28;;;;;;;16.00;3.72;;;;;;;;;;7396878;19;20031;-60
2022/05/28 03:16:56;;;;;;;13.77;3.67;;;;;;;;;;7396084;19;20467;-59
2022/05/28 03:19:27;;;;;;;15.07;4.10;;;;;;;;;;7395919;19;20020;-59
2022/05/28 03:21:56;;;;;;;10.40;2.90;;;;;;;;;;7397081;19;20026;-59
2022/05/28 03:24:25;;;;;;;14.10;4.00;;;;;;;;;;7399573;19;20467;-60
2022/05/28 03:26:57;;;;;;;14.43;3.30;;;;;;;;;;7395228;19;20010;-58
2022/05/28 03:29:26;;;;;;;11.38;2.60;;;;;;;;;;7393134;19;20082;-60
2022/05/28 03:31:54;;;;;;;16.80;3.15;;;;;;;;;;7396870;19;20501;-59
2022/05/28 03:34:23;;;;;;;14.45;3.83;;;;;;;;;;7400389;19;20007;-60
2022/05/28 03:36:54;;;;;;;13.55;3.47;;;;;;;;;;7394413;19;20345;-59
2022/05/28 03:39:22;;;;;;;15.90;4.05;;;;;;;;;;7395219;19;20022;-58
2022/05/28 03:41:51;;;;;;;13.27;3.80;;;;;;;;;;7395891;19;20019;-59
2022/05/28 03:44:19;;;;;;;11.30;3.40;;;;;;;;;;7396512;19;20014;-60
2022/05/28 03:46:48;;;;;;;22.75;3.95;;;;;;;;;;7394391;19;20010;-58
2022/05/28 03:49:22;;;;;;;16.58;3.20;;;;;;;;;;7393393;19;20018;-59
2022/05/28 03:51:53;;;;;;;14.68;3.10;;;;;;;;;;7395852;19;20024;-59
2022/05/28 03:54:22;;;;;;;11.57;3.50;;;;;;;;;;7395898;19;20029;-60
2022/05/28 03:56:51;;;;;;;16.13;3.47;;;;;;;;;;7393938;19;20022;-58
2022/05/28 03:59:20;;;;;;;12.98;3.15;;;;;;;;;;7396516;19;20372;-60
2022/05/28 04:01:48;;;;;;;16.23;3.30;;;;;;;;;;7396248;19;20029;-57
2022/05/28 04:04:17;;;;;;;15.93;3.40;;;;;;;;;;7397466;19;20018;-59
2022/05/28 04:06:45;;;;;;;12.80;3.42;;;;;;;;;;7397610;19;20011;-55
2022/05/28 04:09:17;;;;;;;10.77;2.63;;;;;;;;;;7394626;19;20024;-56
2022/05/28 04:11:45;;;;;;;13.65;3.33;;;;;;;;;;7400400;19;20017;-59
2022/05/28 04:14:13;;;;;;;14.80;3.22;;;;;;;;;;7396177;19;20014;-58
2022/05/28 04:16:42;;;;;;;12.05;2.65;;;;;;;;;;7393137;19;20024;-56
2022/05/28 04:19:10;;;;;;;11.07;4.03;;;;;;;;;;7395854;19;20014;-65
2022/05/28 04:21:39;;;;;;;15.52;3.83;;;;;;;;;;7396340;19;20022;-57
2022/05/28 04:24:08;;;;;;;9.57;2.88;;;;;;;;;;7395842;19;20015;-57
2022/05/28 04:26:39;;;;;;;11.40;2.80;;;;;;;;;;7394811;19;20071;-56
2022/05/28 04:29:08;;;;;;;19.65;4.70;;;;;;;;;;7396625;19;20020;-59
2022/05/28 04:31:37;;;;;;;8.93;2.38;;;;;;;;;;7396162;19;20305;-57
2022/05/28 04:34:05;;;;;;;11.57;2.70;;;;;;;;;;7396019;19;20017;-57
2022/05/28 04:36:34;;;;;;;10.15;2.72;;;;;;;;;;7394503;19;20500;-58
2022/05/28 04:39:02;;;;;;;8.68;2.97;;;;;;;;;;7396858;19;20015;-56
2022/05/28 04:41:31;;;;;;;12.50;2.80;;;;;;;;;;7396852;19;20010;-59
2022/05/28 04:44:02;;;;;;;11.23;2.38;;;;;;;;;;7395285;19;20015;-60
2022/05/28 04:46:30;;;;;;;6.63;2.25;;;;;;;;;;7393750;19;20023;-59
2022/05/28 04:48:59;;;;;;;12.88;2.78;;;;;;;;;;7393545;19;20007;-60
2022/05/28 04:51:27;;;;;;;8.65;2.30;;;;;;;;;;7395532;19;20016;-58
2022/05/28 04:53:56;;;;;;;8.93;2.20;;;;;;;;;;7395593;19;20015;-53
2022/05/28 04:56:24;;;;;;;10.93;2.70;;;;;;;;;;7398641;19;20077;-62
2022/05/28 04:58:53;;;;;;;7.88;2.22;;;;;;;;;;7393918;19;20093;-58
2022/05/28 05:01:25;;;;;;;11.98;2.40;;;;;;;;;;7394316;19;20017;-57
2022/05/28 05:03:53;;;;;;;8.98;1.73;;;;;;;;;;7395907;19;20010;-57
2022/05/28 05:06:22;;;;;;;9.88;2.28;;;;;;;;;;7395865;19;20018;-57
2022/05/28 05:08:50;;;;;;;8.15;1.80;;;;;;;;;;7396079;19;20010;-59
2022/05/28 05:11:19;;;;;;;9.45;1.90;;;;;;;;;;7396907;19;20418;-60
2022/05/28 05:13:47;;;;;;;7.68;1.60;;;;;;;;;;7396071;19;20011;-54
2022/05/28 05:16:17;;;;;;;7.65;1.92;;;;;;;;;;7393430;19;20407;-54
2022/05/28 05:18:48;;;;;;;6.03;1.52;;;;;;;;;;7394279;19;20202;-56
2022/05/28 05:21:16;;;;;;;10.25;2.35;;;;;;;;;;7396844;19;20061;-57
2022/05/28 05:23:45;;;;;;;7.70;1.73;;;;;;;;;;7397893;19;20356;-58
2022/05/28 05:26:15;;;;;;;7.82;1.70;;;;;;;;;;7397877;19;20021;-57
2022/05/28 05:28:43;;;;;;;7.90;1.80;;;;;;;;;;7399265;19;20031;-62
2022/05/28 05:31:12;;;;;;;7.13;1.38;;;;;;;;;;7393638;19;20018;-58
2022/05/28 05:33:40;;;;;;;6.38;1.83;;;;;;;;;;7393564;19;20029;-58
2022/05/28 05:36:12;;;;;;;9.45;1.80;;;;;;;;;;7396582;19;20018;-53
2022/05/28 05:38:40;;;;;;;9.43;1.30;;;;;;;;;;7393717;19;20305;-57
2022/05/28 05:41:09;;;;;;;8.10;1.80;;;;;;;;;;7392664;19;20494;-57
2022/05/28 05:43:37;;;;;;;7.15;1.58;;;;;;;;;;7393617;19;20494;-59
2022/05/28 05:46:07;;;;;;;7.78;1.50;;;;;;;;;;7390507;19;20081;-59
2022/05/28 05:48:35;;;;;;;8.07;1.98;;;;;;;;;;7390501;19;20021;-60
2022/05/28 05:51:08;;;;;;;13.77;1.90;;;;;;;;;;7391782;19;20018;-59
2022/05/28 05:53:39;;;;;;;9.65;1.77;;;;;;;;;;7393025;19;20381;-59
2022/05/28 05:56:08;;;;;;;8.35;1.60;;;;;;;;;;7391869;19;20056;-56
2022/05/28 05:58:36;;;;;;;8.40;1.60;;;;;;;;;;7392929;19;20015;-59
2022/05/28 06:01:05;;;;;;;9.27;1.90;;;;;;;;;;7394828;19;20353;-59
2022/05/28 06:03:34;;;;;;;9.15;2.05;;;;;;;;;;7393051;19;20019;-59
2022/05/28 06:06:03;;;;;;;7.72;1.50;;;;;;;;;;7393120;19;20015;-62
2022/05/28 06:08:32;;;;;;;7.07;1.45;;;;;;;;;;7393442;19;20066;-59
2022/05/28 06:11:03;;;;;;;12.45;1.58;;;;;;;;;;7393182;19;20021;-58
2022/05/28 06:13:32;;;;;;;9.32;1.40;;;;;;;;;;7392925;19;20635;-56
2022/05/28 06:16:00;;;;;;;12.93;1.85;;;;;;;;;;7392403;19;20032;-60
2022/05/28 06:18:29;;;;;;;9.45;1.70;;;;;;;;;;7393067;19;20022;-57
2022/05/28 06:20:58;;;;;;;9.52;1.88;;;;;;;;;;7392677;19;20018;-54
2022/05/28 06:23:26;;;;;;;7.43;1.48;;;;;;;;;;7391911;19;20411;-57
2022/05/28 06:25:54;;;;;;;15.10;1.90;;;;;;;;;;7392045;19;20518;-60
2022/05/28 06:28:26;;;;;;;11.52;2.08;;;;;;;;;;7392476;19;20023;-54
2022/05/28 06:30:54;;;;;;;6.57;1.45;;;;;;;;;;7392172;19;20019;-56
2022/05/28 06:33:23;;;;;;;13.70;1.75;;;;;;;;;;7394151;19;20366;-57
2022/05/28 06:35:51;;;;;;;6.43;1.30;;;;;;;;;;7392179;19;20018;-57
2022/05/28 06:38:20;;;;;;;9.20;1.70;;;;;;;;;;7391545;19;20405;-57
2022/05/28 06:40:49;;;;;;;7.82;1.42;;;;;;;;;;7400044;19;20073;-64
2022/05/28 06:43:17;;;;;;;10.35;1.90;;;;;;;;;;7400187;19;20351;-58
2022/05/28 06:45:48;;;;;;;11.43;1.80;;;;;;;;;;7399124;19;20006;-61
2022/05/28 06:48:17;;;;;;;8.75;1.77;;;;;;;;;;7399683;19;20018;-58
2022/05/28 06:53:27;;;;;;;6.75;1.67;;;;;;;;;;7398921;19;20015;-61
2022/05/28 06:55:55;;;;;;;8.25;1.73;;;;;;;;;;7398308;19;20479;-60
2022/05/28 06:58:23;;;;;;;9.75;1.73;;;;;;;;;;7398827;19;20121;-57
2022/05/28 07:00:55;;;;;;;7.55;1.63;;;;;;;;;;7398768;19;20015;-55
2022/05/28 07:03:24;;;;;;;9.05;1.60;;;;;;;;;;7398923;19;20024;-58
2022/05/28 07:05:53;;;;;;;28.27;2.65;;;;;;;;;;7401064;19;20038;-60
2022/05/28 07:08:21;;;;;;;7.78;1.58;;;;;;;;;;7398437;19;20025;-60
2022/05/28 07:10:50;;;;;;;9.80;1.45;;;;;;;;;;7395921;19;20015;-59
2022/05/28 07:13:19;;;;;;;13.20;2.00;;;;;;;;;;7399865;19;20011;-61
2022/05/28 07:15:48;;;;;;;11.02;2.42;;;;;;;;;;7398088;19;20014;-60
2022/05/28 07:18:19;;;;;;;10.43;1.80;;;;;;;;;;7397669;19;20018;-56
2022/05/28 07:20:48;;;;;;;9.73;1.70;;;;;;;;;;7397735;19;20502;-58
2022/05/28 07:23:17;;;;;;;7.53;1.58;;;;;;;;;;7398246;19;20108;-58
2022/05/28 07:25:46;;;;;;;9.70;2.03;;;;;;;;;;7397227;19;20368;-60
2022/05/28 07:28:28;;;;;;;8.00;2.33;;;;;;;;;;7397357;19;20010;-58
2022/05/28 07:30:57;;;;;;;6.90;1.63;;;;;;;;;;7393998;19;20539;-56
2022/05/28 07:33:28;;;;;;;8.48;2.28;;;;;;;;;;7397194;19;20070;-53
2022/05/28 07:35:57;;;;;;;11.48;1.98;;;;;;;;;;7396981;19;20456;-56
2022/05/28 07:38:27;;;;;;;9.93;1.88;;;;;;;;;;7396942;19;20622;-58
2022/05/28 07:40:55;;;;;;;9.18;1.92;;;;;;;;;;7396263;19;20015;-58
2022/05/28 07:43:24;;;;;;;9.15;1.95;;;;;;;;;;7396916;19;20018;-56
2022/05/28 07:45:52;;;;;;;10.18;2.13;;;;;;;;;;7396307;19;20115;-59
2022/05/28 07:48:21;;;;;;;10.15;1.90;;;;;;;;;;7396547;19;20010;-60
2022/05/28 07:50:52;;;;;;;7.22;1.77;;;;;;;;;;7394326;19;20002;-58
2022/05/28 07:53:21;;;;;;;9.25;2.15;;;;;;;;;;7396572;19;20018;-58
2022/05/28 07:55:49;;;;;;;8.98;1.63;;;;;;;;;;7397472;19;20018;-58
2022/05/28 07:58:18;;;;;;;13.23;3.17;;;;;;;;;;7398873;19;20476;-59
2022/05/28 08:00:48;;;;;;;8.00;1.77;;;;;;;;;;7396948;19;20025;-58
2022/05/28 08:03:17;;;;;;;12.73;2.85;;;;;;;;;;7397097;19;20537;-58
2022/05/28 08:05:47;;;;;;;8.07;1.98;;;;;;;;;;7397204;19;20022;-60
2022/05/28 08:08:18;;;;;;;8.35;2.03;;;;;;;;;;7396499;19;20341;-58
2022/05/28 08:10:48;;;;;;;12.90;2.30;;;;;;;;;;7393365;19;20018;-55
2022/05/28 08:13:18;;;;;;;13.65;2.33;;;;;;;;;;7394862;19;20010;-60
2022/05/28 08:15:47;;;;;;;9.55;2.13;;;;;;;;;;7396429;19;20018;-60
2022/05/28 08:18:16;;;;;;;11.93;2.28;;;;;;;;;;7394981;19;20018;-59
2022/05/28 08:23:28;;;;;;;9.40;2.20;;;;;;;;;;7398313;19;20015;-59
2022/05/28 08:25:57;;;;;;;12.15;2.28;;;;;;;;;;7395187;19;20488;-60
2022/05/28 08:28:25;;;;;;;10.52;2.45;;;;;;;;;;7395850;19;20403;-58
2022/05/28 08:30:54;;;;;;;12.65;2.22;;;;;;;;;;7392228;19;20019;-59
2022/05/28 08:33:23;;;;;;;13.50;2.22;;;;;;;;;;7395840;19;20017;-58
2022/05/28 08:35:53;;;;;;;12.93;2.47;;;;;;;;;;7395120;19;20014;-58
2022/05/28 08:38:22;;;;;;;9.77;2.05;;;;;;;;;;7395937;19;20019;-60
2022/05/28 08:40:57;;;;;;;23.10;2.80;;;;;;;;;;7394196;19;20074;-57
2022/05/28 08:43:28;;;;;;;8.40;1.85;;;;;;;;;;7395199;19;20022;-58
2022/05/28 08:45:57;;;;;;;9.50;2.13;;;;;;;;;;7394124;19;20018;-59
2022/05/28 08:48:27;;;;;;;10.63;2.33;;;;;;;;;;7394661;19;20025;-53
2022/05/28 08:50:58;;;;;;;7.18;1.95;;;;;;;;;;7393627;19;20023;-55
2022/05/28 08:53:29;;;;;;;10.27;2.10;;;;;;;;;;7394603;19;20015;-61
2022/05/28 08:56:00;;;;;;;10.60;1.80;;;;;;;;;;7393656;19;20028;-53
2022/05/28 08:58:31;;;;;;;10.50;1.83;;;;;;;;;;7393736;19;20025;-58
2022/05/28 09:01:02;;;;;;;7.78;1.70;;;;;;;;;;7393221;19;20018;-58
2022/05/28 09:03:33;;;;;;;9.23;1.95;;;;;;;;;;7394472;19;20713;-60
2022/05/28 09:06:06;;;;;;;9.10;2.08;;;;;;;;;;7393649;19;20467;-57
2022/05/28 09:08:37;;;;;;;12.48;2.40;;;;;;;;;;7394224;19;20018;-55
2022/05/28 09:11:09;;;;;;;10.10;2.20;;;;;;;;;;7392431;19;20011;-57
2022/05/28 09:13:40;;;;;;;14.27;2.38;;;;;;;;;;7394108;19;20021;-57
2022/05/28 09:16:10;;;;;;;11.63;1.95;;;;;;;;;;7393367;19;20014;-56
2022/05/28 09:18:39;;;;;;;8.43;2.08;;;;;;;;;;7393751;19;20479;-57
2022/05/28 09:21:09;;;;;;;7.03;1.83;;;;;;;;;;7396568;19;20021;-57
2022/05/28 09:23:41;;;;;;;10.10;2.38;;;;;;;;;;7394205;19;20014;-57
2022/05/28 09:26:13;;;;;;;6.35;1.65;;;;;;;;;;7394147;19;20015;-54
2022/05/28 09:28:48;;;;;;;9.40;1.70;;;;;;;;;;7393708;19;20081;-54
2022/05/28 09:31:25;;;;;;;7.82;1.58;;;;;;;;;;7391780;19;20344;-53
2022/05/28 09:34:01;;;;;;;8.00;1.92;;;;;;;;;;7394758;19;20010;-54
2022/05/28 09:36:33;;;;;;;9.20;1.80;;;;;;;;;;7392713;19;20018;-54
2022/05/28 09:39:05;;;;;;;6.70;1.80;;;;;;;;;;7393658;19;20019;-59
2022/05/28 09:41:52;;;;;;;8.15;1.80;;;;;;;;;;7394056;19;20015;-56
2022/05/28 09:44:25;;;;;;;8.52;2.28;;;;;;;;;;7393402;19;20090;-53
2022/05/28 09:46:54;;;;;;;12.13;2.63;;;;;;;;;;7393116;19;20035;-53
2022/05/28 09:49:23;;;;;;;7.88;2.00;;;;;;;;;;7397632;19;20018;-53
2022/05/28 09:51:54;;;;;;;6.45;1.77;;;;;;;;;;7391905;19;20025;-56
2022/05/28 09:54:21;;;;;;;6.63;2.13;;;;;;;;;;7392614;19;20011;-53
2022/05/28 09:56:53;;;;;;;5.93;1.80;;;;;;;;;;7392453;19;20377;-56
2022/05/28 09:59:24;;;;;;;4.03;1.40;;;;;;;;;;7394000;19;20025;-56
2022/05/28 10:01:57;;;;;;;6.78;1.85;;;;;;;;;;7393550;19;20066;-57
2022/05/28 10:04:30;;;;;;;4.68;1.50;;;;;;;;;;7394094;19;20087;-59
2022/05/28 10:06:59;;;;;;;7.13;1.63;;;;;;;;;;7392093;19;20022;-58
2022/05/28 10:09:29;;;;;;;5.72;1.45;;;;;;;;;;7391504;19;20091;-58
2022/05/28 10:12:01;;;;;;;5.85;1.63;;;;;;;;;;7390627;19;20564;-58
2022/05/28 10:14:31;;;;;;;6.45;1.80;;;;;;;;;;7388443;19;20014;-57
2022/05/28 10:17:00;;;;;;;8.27;1.83;;;;;;;;;;7391013;19;20026;-58
2022/05/28 10:19:33;;;;;;;8.63;2.33;;;;;;;;;;7391248;19;20122;-61
2022/05/28 10:22:03;;;;;;;9.38;2.08;;;;;;;;;;7396941;19;20160;-59
2022/05/28 10:24:41;;;;;;;10.02;2.13;;;;;;;;;;7391769;19;20007;-54
2022/05/28 10:27:24;;;;;;;9.52;2.58;;;;;;;;;;7390717;19;20483;-57
2022/05/28 10:29:53;;;;;;;8.82;2.55;;;;;;;;;;7390800;19;20103;-60
2022/05/28 10:32:27;;;;;;;10.35;2.55;;;;;;;;;;7391786;19;20395;-56
2022/05/28 10:35:03;;;;;;;6.82;1.90;;;;;;;;;;7396167;19;20081;-57
2022/05/28 10:37:31;;;;;;;7.78;1.95;;;;;;;;;;7390826;19;20515;-58
2022/05/28 10:40:05;;;;;;;5.95;1.73;;;;;;;;;;7391487;19;20066;-60
2022/05/28 10:42:37;;;;;;;7.63;1.70;;;;;;;;;;7390888;19;20396;-58
2022/05/28 10:45:06;;;;;;;5.97;1.93;;;;;;;;;;7391444;19;20097;-58
2022/05/28 10:47:42;;;;;;;8.20;2.13;;;;;;;;;;7391843;19;20002;-58
2022/05/28 10:50:16;;;;;;;6.47;2.05;;;;;;;;;;7385835;19;20660;-58
2022/05/28 10:52:53;;;;;;;16.27;3.13;;;;;;;;;;7391370;19;20011;-58
2022/05/28 10:55:24;;;;;;;8.15;2.38;;;;;;;;;;7391153;19;20019;-58
2022/05/28 10:58:07;;;;;;;10.38;2.05;;;;;;;;;;7384413;19;20025;-59
2022/05/28 11:00:41;;;;;;;11.38;4.28;;;;;;;;;;7388514;19;20452;-60
2022/05/28 11:03:30;;;;;;;8.02;2.47;;;;;;;;;;7389884;19;20015;-60
2022/05/28 11:06:15;;;;;;;6.63;2.45;;;;;;;;;;7390127;19;20833;-57
2022/05/28 11:08:48;;;;;;;9.48;2.42;;;;;;;;;;7390885;19;20018;-61
2022/05/28 11:11:24;;;;;;;9.02;1.83;;;;;;;;;;7388326;19;20465;-53
2022/05/28 11:14:14;;;;;;;9.88;2.38;;;;;;;;;;7391015;19;20015;-53
2022/05/28 11:16:52;;;;;;;13.23;2.17;;;;;;;;;;7389332;19;20029;-60
2022/05/28 11:19:27;;;;;;;26.10;3.08;;;;;;;;;;7390662;19;20091;-57
2022/05/28 11:22:02;;;;;;;12.35;2.45;;;;;;;;;;7390693;19;20348;-57
2022/05/28 11:24:52;;;;;;;6.35;1.80;;;;;;;;;;7390276;19;20025;-57
2022/05/28 11:27:26;;;;;;;7.85;1.55;;;;;;;;;;7398441;19;20028;-60
2022/05/28 11:30:00;;;;;;;5.13;1.45;;;;;;;;;;7396083;19;20487;-60
2022/05/28 11:32:30;;;;;;;8.25;1.58;;;;;;;;;;7399748;19;20482;-58
2022/05/28 11:35:01;;;;;;;10.35;1.90;;;;;;;;;;7397296;19;20055;-59
2022/05/28 11:37:32;;;;;;;5.25;1.90;;;;;;;;;;7400911;19;20478;-53
2022/05/28 11:40:02;;;;;;;5.05;1.83;;;;;;;;;;7398177;19;20083;-55
2022/05/28 11:42:33;;;;;;;5.03;1.63;;;;;;;;;;7399439;19;20416;-54
2022/05/28 11:45:05;;;;;;;6.95;1.60;;;;;;;;;;7398973;19;20018;-57
2022/05/28 11:47:46;;;;;;;4.57;1.77;;;;;;;;;;7395288;19;20475;-55
2022/05/28 11:53:05;;;;;;;6.25;1.95;;;;;;;;;;7402924;19;20459;-57
2022/05/28 11:55:35;;;;;;;8.43;1.75;;;;;;;;;;7400038;19;20015;-57
2022/05/28 11:58:07;;;;;;;6.85;1.80;;;;;;;;;;7400037;19;20085;-53
2022/05/28 12:00:40;;;;;;;8.23;1.53;;;;;;;;;;7398281;19;20014;-60
2022/05/28 12:03:08;;;;;;;;;;;;;;;;;;7397035;19;20010;-58
2022/05/28 12:05:44;;;;;;;4.47;1.70;;;;;;;;;;7395898;19;19910;-58
2022/05/28 12:08:21;;;;;;;5.07;1.58;;;;;;;;;;7399047;19;20015;-61
2022/05/28 12:10:51;;;;;;;9.30;2.05;;;;;;;;;;7394311;19;20459;-57
2022/05/28 12:13:32;;;;;;;12.27;2.30;;;;;;;;;;7395979;19;20026;-58
2022/05/28 12:16:10;;;;;;;4.07;1.50;;;;;;;;;;7395858;19;20044;-54
2022/05/28 12:18:39;;;;;;;6.13;1.33;;;;;;;;;;7396058;19;20019;-57
2022/05/28 12:21:08;;;;;;;7.72;1.90;;;;;;;;;;7394284;19;20018;-60
2022/05/28 12:23:37;;;;;;;4.78;1.30;;;;;;;;;;7395443;19;20067;-57
2022/05/28 12:26:22;;;;;;;8.55;2.00;;;;;;;;;;7395379;19;20514;-59
2022/05/28 12:28:51;;;;;;;9.27;1.80;;;;;;;;;;7398658;19;20023;-57
2022/05/28 12:31:30;;;;;;;6.80;2.00;;;;;;;;;;7395383;19;20034;-58
2022/05/28 12:33:59;;;;;;;6.60;1.92;;;;;;;;;;7397300;19;20014;-57
2022/05/28 12:36:34;;;;;;;8.43;2.10;;;;;;;;;;7394135;19;20018;-60
2022/05/28 12:39:05;;;;;;;6.72;1.42;;;;;;;;;;7394909;19;20014;-61
2022/05/28 12:41:35;;;;;;;5.90;1.55;;;;;;;;;;7398986;19;20011;-60
2022/05/28 12:44:05;;;;;;;6.18;1.63;;;;;;;;;;7394890;19;20358;-54
2022/05/28 12:46:41;;;;;;;5.18;1.40;;;;;;;;;;7393824;19;20026;-60
2022/05/28 12:49:11;;;;;;;4.82;1.63;;;;;;;;;;7396932;19;20010;-58
2022/05/28 12:51:48;;;;;;;5.93;1.63;;;;;;;;;;7393775;19;20034;-60
2022/05/28 12:54:27;;;;;;;4.68;1.40;;;;;;;;;;7392205;19;20138;-56
2022/05/28 12:57:06;;;;;;;8.98;1.90;;;;;;;;;;7393456;19;20024;-60
2022/05/28 12:59:36;;;;;;;7.20;1.67;;;;;;;;;;7393222;19;20013;-59
2022/05/28 13:02:14;;;;;;;6.00;1.75;;;;;;;;;;7395532;19;20078;-58
2022/05/28 13:04:43;;;;;;;8.65;2.20;;;;;;;;;;7393595;19;20368;-60
2022/05/28 13:07:21;;;;;;;6.78;1.73;;;;;;;;;;7393059;19;20471;-58
2022/05/28 13:09:50;;;;;;;11.32;2.50;;;;;;;;;;7394264;19;20015;-59
2022/05/28 13:12:22;;;;;;;8.98;2.58;;;;;;;;;;7393412;19;20015;-53
2022/05/28 13:15:06;;;;;;;9.73;1.70;;;;;;;;;;7394780;19;20014;-57
2022/05/28 13:17:55;;;;;;;26.67;4.28;;;;;;;;;;7392424;19;20048;-57
2022/05/28 13:20:29;;;;;;;9.63;2.92;;;;;;;;;;7392598;19;20019;-59
2022/05/28 13:23:09;;;;;;;9.40;2.13;;;;;;;;;;7393524;19;20018;-58
2022/05/28 13:26:00;;;;;;;6.38;2.08;;;;;;;;;;7393248;19;20026;-59
2022/05/28 13:28:37;;;;;;;8.90;2.70;;;;;;;;;;7392508;19;20006;-59
2022/05/28 13:31:07;;;;;;;9.02;2.47;;;;;;;;;;7391900;19;20099;-58
2022/05/28 13:33:38;;;;;;;15.02;2.92;;;;;;;;;;7396124;19;20013;-58
2022/05/28 13:36:08;;;;;;;13.07;2.28;;;;;;;;;;7390638;19;20047;-60
2022/05/28 13:38:38;;;;;;;9.65;2.50;;;;;;;;;;7392376;19;20014;-59
2022/05/28 13:41:09;;;;;;;8.35;1.98;;;;;;;;;;7392491;19;20014;-59
2022/05/28 13:43:39;;;;;;;7.25;1.95;;;;;;;;;;7392680;19;20021;-58
2022/05/28 13:46:09;;;;;;;13.70;2.20;;;;;;;;;;7388316;19;20562;-57
2022/05/28 13:48:42;;;;;;;10.52;1.70;;;;;;;;;;7389623;19;20018;-60
2022/05/28 13:51:10;;;;;;;;;;;;;;;;;;7392570;19;20357;-59
2022/05/28 13:53:40;;;;;;;3.63;1.40;;;;;;;;;;7392469;19;19988;-60
2022/05/28 13:56:10;;;;;;;3.55;1.40;;;;;;;;;;7391754;19;20394;-57
2022/05/28 13:58:39;;;;;;;6.53;1.50;;;;;;;;;;7392059;19;20030;-59
2022/05/28 14:01:09;;;;;;;9.32;1.40;;;;;;;;;;7391598;19;20024;-58
2022/05/28 14:03:41;;;;;;;2.90;1.40;;;;;;;;;;7393694;19;20348;-54
2022/05/28 14:06:15;;;;;;;4.97;1.30;;;;;;;;;;7391492;19;20022;-57
2022/05/28 14:08:45;;;;;;;9.57;1.92;;;;;;;;;;7391904;19;20019;-60
2022/05/28 14:11:21;;;;;;;4.68;1.27;;;;;;;;;;7390935;19;20317;-59
2022/05/28 14:13:51;;;;;;;26.52;3.45;;;;;;;;;;7391710;19;20348;-60
2022/05/28 14:16:23;;;;;;;6.55;1.83;;;;;;;;;;7393327;19;20025;-60
2022/05/28 14:18:54;;;;;;;5.20;1.50;;;;;;;;;;7391240;19;20014;-59
2022/05/28 14:21:23;;;;;;;8.25;1.90;;;;;;;;;;7390438;19;20010;-58
2022/05/28 14:23:51;;;;;;;6.93;1.80;;;;;;;;;;7391538;19;20055;-59
2022/05/28 14:26:20;;;;;;;9.27;1.85;;;;;;;;;;7390110;19;20015;-59
2022/05/28 14:28:49;;;;;;;12.98;2.10;;;;;;;;;;7391439;19;20033;-59
2022/05/28 14:31:19;;;;;;;8.50;1.83;;;;;;;;;;7394749;19;20011;-54
2022/05/28 14:33:51;;;;;;;6.70;2.10;;;;;;;;;;7391149;19;20352;-59
2022/05/28 14:36:33;;;;;;;6.70;1.80;;;;;;;;;;7390957;19;20341;-60
2022/05/28 14:39:11;;;;;;;6.78;1.90;;;;;;;;;;7388720;19;20049;-56
2022/05/28 14:41:43;;;;;;;8.10;2.30;;;;;;;;;;7387932;19;20025;-56
2022/05/28 14:44:15;;;;;;;19.08;2.63;;;;;;;;;;7391094;19;20023;-60
2022/05/28 14:46:45;;;;;;;8.43;2.35;;;;;;;;;;7391656;19;20018;-61
2022/05/28 14:49:19;;;;;;;7.63;2.50;;;;;;;;;;7390285;19;20014;-60
2022/05/28 14:51:50;;;;;;;20.13;2.67;;;;;;;;;;7389946;19;20014;-61
2022/05/28 14:54:20;;;;;;;33.00;3.53;;;;;;;;;;7390803;19;20348;-60
2022/05/28 14:56:49;;;;;;;8.02;2.10;;;;;;;;;;7390238;19;20025;-59
2022/05/28 14:59:24;;;;;;;7.53;2.42;;;;;;;;;;7389744;19;20021;-61
2022/05/28 15:01:52;;;;;;;12.02;2.35;;;;;;;;;;7399705;19;20007;-61
2022/05/28 15:04:31;;;;;;;10.30;2.20;;;;;;;;;;7402196;19;20021;-61
2022/05/28 15:07:05;;;;;;;8.05;2.65;;;;;;;;;;7396891;19;20022;-61
2022/05/28 15:09:37;;;;;;;9.15;2.15;;;;;;;;;;7397667;19;20014;-59